sensor_id;sensor_type;location;lat;lon;timestamp;P1;durP1;ratioP1;P2;durP2;ratioP2
44816;SDS011;30529;53.570;9.964;2023-03-31T00:00:51;19.00;;;4.30;;
44816;SDS011;30529;53.570;9.964;2023-03-31T00:03:18;13.67;;;3.27;;
44816;SDS011;30529;53.570;9.964;2023-03-31T00:05:53;20.03;;;3.47;;
44816;SDS011;30529;53.570;9.964;2023-03-31T00:08:23;13.47;;;3.40;;
44816;SDS011;30529;53.570;9.964;2023-03-31T00:10:57;15.63;;;3.80;;
44816;SDS011;30529;53.570;9.964;2023-03-31T00:13:24;14.43;;;2.90;;
44816;SDS011;30529;53.570;9.964;2023-03-31T00:15:57;17.50;;;4.43;;
44816;SDS011;30529;53.570;9.964;2023-03-31T00:18:25;14.67;;;3.53;;
44816;SDS011;30529;53.570;9.964;2023-03-31T00:20:52;17.77;;;3.73;;
44816;SDS011;30529;53.570;9.964;2023-03-31T00:23:19;21.97;;;3.37;;
44816;SDS011;30529;53.570;9.964;2023-03-31T00:25:53;18.70;;;3.03;;
44816;SDS011;30529;53.570;9.964;2023-03-31T00:28:20;12.60;;;2.87;;
44816;SDS011;30529;53.570;9.964;2023-03-31T00:30:46;17.47;;;3.27;;
44816;SDS011;30529;53.570;9.964;2023-03-31T00:33:12;20.47;;;3.00;;
44816;SDS011;30529;53.570;9.964;2023-03-31T00:35:38;20.97;;;4.03;;
44816;SDS011;30529;53.570;9.964;2023-03-31T00:38:05;17.50;;;3.30;;
44816;SDS011;30529;53.570;9.964;2023-03-31T00:40:34;13.43;;;3.80;;
44816;SDS011;30529;53.570;9.964;2023-03-31T00:43:00;16.30;;;3.80;;
44816;SDS011;30529;53.570;9.964;2023-03-31T00:45:28;13.57;;;3.30;;
44816;SDS011;30529;53.570;9.964;2023-03-31T00:48:03;15.43;;;3.13;;
44816;SDS011;30529;53.570;9.964;2023-03-31T00:50:36;11.87;;;2.57;;
44816;SDS011;30529;53.570;9.964;2023-03-31T00:53:09;17.87;;;3.23;;
44816;SDS011;30529;53.570;9.964;2023-03-31T00:55:39;13.63;;;3.77;;
44816;SDS011;30529;53.570;9.964;2023-03-31T00:58:07;10.83;;;2.37;;
44816;SDS011;30529;53.570;9.964;2023-03-31T01:00:39;18.20;;;3.37;;
44816;SDS011;30529;53.570;9.964;2023-03-31T01:03:06;14.90;;;2.87;;
44816;SDS011;30529;53.570;9.964;2023-03-31T01:05:41;10.70;;;2.73;;
44816;SDS011;30529;53.570;9.964;2023-03-31T01:08:12;16.10;;;3.47;;
44816;SDS011;30529;53.570;9.964;2023-03-31T01:10:40;14.30;;;2.90;;
44816;SDS011;30529;53.570;9.964;2023-03-31T01:13:11;16.33;;;3.30;;
44816;SDS011;30529;53.570;9.964;2023-03-31T01:15:39;12.73;;;3.03;;
44816;SDS011;30529;53.570;9.964;2023-03-31T01:18:07;15.03;;;3.23;;
44816;SDS011;30529;53.570;9.964;2023-03-31T01:20:56;16.80;;;3.43;;
44816;SDS011;30529;53.570;9.964;2023-03-31T01:23:35;16.73;;;3.37;;
44816;SDS011;30529;53.570;9.964;2023-03-31T01:26:19;15.90;;;2.70;;
44816;SDS011;30529;53.570;9.964;2023-03-31T01:31:54;17.50;;;3.20;;
44816;SDS011;30529;53.570;9.964;2023-03-31T01:37:50;18.30;;;3.83;;
44816;SDS011;30529;53.570;9.964;2023-03-31T01:40:45;13.53;;;2.70;;
44816;SDS011;30529;53.570;9.964;2023-03-31T01:43:19;14.17;;;3.67;;
44816;SDS011;30529;53.570;9.964;2023-03-31T01:48:20;16.20;;;3.63;;
44816;SDS011;30529;53.570;9.964;2023-03-31T01:51:11;17.40;;;3.17;;
44816;SDS011;30529;53.570;9.964;2023-03-31T01:54:01;13.37;;;3.57;;
44816;SDS011;30529;53.570;9.964;2023-03-31T01:56:45;14.87;;;3.37;;
44816;SDS011;30529;53.570;9.964;2023-03-31T01:59:51;18.23;;;3.27;;
44816;SDS011;30529;53.570;9.964;2023-03-31T02:02:24;16.63;;;3.20;;
44816;SDS011;30529;53.570;9.964;2023-03-31T02:05:02;14.50;;;3.47;;
44816;SDS011;30529;53.570;9.964;2023-03-31T02:07:36;14.00;;;3.63;;
44816;SDS011;30529;53.570;9.964;2023-03-31T02:10:07;9.90;;;3.20;;
44816;SDS011;30529;53.570;9.964;2023-03-31T02:12:35;19.77;;;5.03;;
44816;SDS011;30529;53.570;9.964;2023-03-31T02:15:04;14.27;;;3.50;;
44816;SDS011;30529;53.570;9.964;2023-03-31T02:17:33;16.03;;;3.83;;
44816;SDS011;30529;53.570;9.964;2023-03-31T02:20:13;14.20;;;2.90;;
44816;SDS011;30529;53.570;9.964;2023-03-31T02:22:44;12.70;;;3.43;;
44816;SDS011;30529;53.570;9.964;2023-03-31T02:25:14;11.73;;;2.97;;
44816;SDS011;30529;53.570;9.964;2023-03-31T02:27:45;13.23;;;3.60;;
44816;SDS011;30529;53.570;9.964;2023-03-31T02:30:17;11.77;;;3.30;;
44816;SDS011;30529;53.570;9.964;2023-03-31T02:32:43;11.03;;;3.53;;
44816;SDS011;30529;53.570;9.964;2023-03-31T02:35:14;15.20;;;3.80;;
44816;SDS011;30529;53.570;9.964;2023-03-31T02:37:43;12.83;;;3.67;;
44816;SDS011;30529;53.570;9.964;2023-03-31T02:40:20;19.80;;;3.60;;
44816;SDS011;30529;53.570;9.964;2023-03-31T02:42:47;10.87;;;3.77;;
44816;SDS011;30529;53.570;9.964;2023-03-31T02:48:19;15.17;;;3.60;;
44816;SDS011;30529;53.570;9.964;2023-03-31T02:50:53;15.07;;;3.80;;
44816;SDS011;30529;53.570;9.964;2023-03-31T03:07:44;10.47;;;3.37;;
44816;SDS011;30529;53.570;9.964;2023-03-31T03:13:05;9.83;;;3.73;;
44816;SDS011;30529;53.570;9.964;2023-03-31T03:15:50;11.83;;;3.33;;
44816;SDS011;30529;53.570;9.964;2023-03-31T03:18:24;8.43;;;3.60;;
44816;SDS011;30529;53.570;9.964;2023-03-31T03:20:50;14.30;;;3.70;;
44816;SDS011;30529;53.570;9.964;2023-03-31T03:23:17;14.90;;;4.00;;
44816;SDS011;30529;53.570;9.964;2023-03-31T03:25:43;14.53;;;3.73;;
44816;SDS011;30529;53.570;9.964;2023-03-31T03:28:10;17.03;;;4.67;;
44816;SDS011;30529;53.570;9.964;2023-03-31T03:30:36;10.30;;;3.70;;
44816;SDS011;30529;53.570;9.964;2023-03-31T03:33:02;14.40;;;3.97;;
44816;SDS011;30529;53.570;9.964;2023-03-31T03:35:31;8.30;;;3.47;;
44816;SDS011;30529;53.570;9.964;2023-03-31T03:37:57;13.87;;;4.47;;
44816;SDS011;30529;53.570;9.964;2023-03-31T03:40:24;13.27;;;3.97;;
44816;SDS011;30529;53.570;9.964;2023-03-31T03:42:50;13.57;;;4.30;;
44816;SDS011;30529;53.570;9.964;2023-03-31T03:45:16;11.03;;;4.33;;
44816;SDS011;30529;53.570;9.964;2023-03-31T03:47:42;15.60;;;4.40;;
44816;SDS011;30529;53.570;9.964;2023-03-31T03:50:08;9.57;;;3.97;;
44816;SDS011;30529;53.570;9.964;2023-03-31T03:52:35;16.27;;;4.10;;
44816;SDS011;30529;53.570;9.964;2023-03-31T03:55:01;11.87;;;4.23;;
44816;SDS011;30529;53.570;9.964;2023-03-31T03:57:27;15.20;;;3.90;;
44816;SDS011;30529;53.570;9.964;2023-03-31T03:59:53;14.33;;;4.97;;
44816;SDS011;30529;53.570;9.964;2023-03-31T04:02:19;10.80;;;4.90;;
44816;SDS011;30529;53.570;9.964;2023-03-31T04:04:45;15.60;;;4.73;;
44816;SDS011;30529;53.570;9.964;2023-03-31T04:07:12;11.47;;;4.97;;
44816;SDS011;30529;53.570;9.964;2023-03-31T04:09:38;13.07;;;4.83;;
44816;SDS011;30529;53.570;9.964;2023-03-31T04:12:04;13.40;;;4.73;;
44816;SDS011;30529;53.570;9.964;2023-03-31T04:14:30;12.73;;;5.17;;
44816;SDS011;30529;53.570;9.964;2023-03-31T04:16:56;17.57;;;5.87;;
44816;SDS011;30529;53.570;9.964;2023-03-31T04:19:23;10.60;;;4.70;;
44816;SDS011;30529;53.570;9.964;2023-03-31T04:21:50;12.43;;;4.80;;
44816;SDS011;30529;53.570;9.964;2023-03-31T04:24:24;12.23;;;5.13;;
44816;SDS011;30529;53.570;9.964;2023-03-31T04:26:55;11.37;;;5.17;;
44816;SDS011;30529;53.570;9.964;2023-03-31T04:29:22;10.90;;;4.33;;
44816;SDS011;30529;53.570;9.964;2023-03-31T04:31:52;15.80;;;5.23;;
44816;SDS011;30529;53.570;9.964;2023-03-31T04:34:18;12.50;;;4.83;;
44816;SDS011;30529;53.570;9.964;2023-03-31T04:36:46;14.97;;;5.70;;
44816;SDS011;30529;53.570;9.964;2023-03-31T04:39:13;16.23;;;5.43;;
44816;SDS011;30529;53.570;9.964;2023-03-31T04:41:48;12.10;;;5.17;;
44816;SDS011;30529;53.570;9.964;2023-03-31T04:44:14;14.03;;;6.23;;
44816;SDS011;30529;53.570;9.964;2023-03-31T04:46:40;14.17;;;5.13;;
44816;SDS011;30529;53.570;9.964;2023-03-31T04:49:06;16.10;;;5.53;;
44816;SDS011;30529;53.570;9.964;2023-03-31T04:51:32;14.93;;;6.10;;
44816;SDS011;30529;53.570;9.964;2023-03-31T04:53:58;13.77;;;6.50;;
44816;SDS011;30529;53.570;9.964;2023-03-31T04:56:24;13.00;;;5.50;;
44816;SDS011;30529;53.570;9.964;2023-03-31T04:58:51;16.23;;;6.43;;
44816;SDS011;30529;53.570;9.964;2023-03-31T05:01:17;18.97;;;7.07;;
44816;SDS011;30529;53.570;9.964;2023-03-31T05:03:45;14.03;;;5.80;;
44816;SDS011;30529;53.570;9.964;2023-03-31T05:06:15;18.53;;;5.50;;
44816;SDS011;30529;53.570;9.964;2023-03-31T05:08:41;11.87;;;5.60;;
44816;SDS011;30529;53.570;9.964;2023-03-31T05:11:08;11.23;;;6.00;;
44816;SDS011;30529;53.570;9.964;2023-03-31T05:13:34;16.37;;;5.77;;
44816;SDS011;30529;53.570;9.964;2023-03-31T05:16:10;12.13;;;5.73;;
44816;SDS011;30529;53.570;9.964;2023-03-31T05:18:39;11.90;;;5.50;;
44816;SDS011;30529;53.570;9.964;2023-03-31T05:21:09;14.83;;;6.20;;
44816;SDS011;30529;53.570;9.964;2023-03-31T05:23:38;10.80;;;5.87;;
44816;SDS011;30529;53.570;9.964;2023-03-31T05:26:05;13.40;;;6.23;;
44816;SDS011;30529;53.570;9.964;2023-03-31T05:28:32;11.27;;;5.80;;
44816;SDS011;30529;53.570;9.964;2023-03-31T05:31:00;12.83;;;5.07;;
44816;SDS011;30529;53.570;9.964;2023-03-31T05:33:28;15.27;;;6.80;;
44816;SDS011;30529;53.570;9.964;2023-03-31T05:35:55;11.80;;;6.10;;
44816;SDS011;30529;53.570;9.964;2023-03-31T05:38:22;13.57;;;5.33;;
44816;SDS011;30529;53.570;9.964;2023-03-31T05:40:48;12.90;;;5.37;;
44816;SDS011;30529;53.570;9.964;2023-03-31T05:43:14;16.00;;;5.47;;
44816;SDS011;30529;53.570;9.964;2023-03-31T05:45:40;14.40;;;5.97;;
44816;SDS011;30529;53.570;9.964;2023-03-31T05:48:06;11.53;;;5.17;;
44816;SDS011;30529;53.570;9.964;2023-03-31T05:50:32;14.53;;;5.47;;
44816;SDS011;30529;53.570;9.964;2023-03-31T05:52:57;16.43;;;6.03;;
44816;SDS011;30529;53.570;9.964;2023-03-31T05:55:24;14.13;;;5.83;;
44816;SDS011;30529;53.570;9.964;2023-03-31T05:57:50;15.00;;;5.47;;
44816;SDS011;30529;53.570;9.964;2023-03-31T06:00:16;11.07;;;5.37;;
44816;SDS011;30529;53.570;9.964;2023-03-31T06:02:42;11.60;;;5.87;;
44816;SDS011;30529;53.570;9.964;2023-03-31T06:05:08;15.93;;;5.00;;
44816;SDS011;30529;53.570;9.964;2023-03-31T06:07:34;12.83;;;5.60;;
44816;SDS011;30529;53.570;9.964;2023-03-31T06:10:06;15.30;;;5.70;;
44816;SDS011;30529;53.570;9.964;2023-03-31T06:12:35;13.00;;;5.40;;
44816;SDS011;30529;53.570;9.964;2023-03-31T06:15:01;18.23;;;5.87;;
44816;SDS011;30529;53.570;9.964;2023-03-31T06:17:28;13.90;;;5.43;;
44816;SDS011;30529;53.570;9.964;2023-03-31T06:19:54;13.07;;;5.47;;
44816;SDS011;30529;53.570;9.964;2023-03-31T06:22:20;13.73;;;4.70;;
44816;SDS011;30529;53.570;9.964;2023-03-31T06:24:46;14.97;;;5.53;;
44816;SDS011;30529;53.570;9.964;2023-03-31T06:27:12;14.53;;;5.23;;
44816;SDS011;30529;53.570;9.964;2023-03-31T06:29:38;17.77;;;5.30;;
44816;SDS011;30529;53.570;9.964;2023-03-31T06:32:03;11.50;;;4.67;;
44816;SDS011;30529;53.570;9.964;2023-03-31T06:34:30;15.70;;;5.80;;
44816;SDS011;30529;53.570;9.964;2023-03-31T06:36:55;15.77;;;5.27;;
44816;SDS011;30529;53.570;9.964;2023-03-31T06:39:21;13.00;;;5.13;;
44816;SDS011;30529;53.570;9.964;2023-03-31T06:41:47;14.93;;;5.07;;
44816;SDS011;30529;53.570;9.964;2023-03-31T06:44:13;10.73;;;4.47;;
44816;SDS011;30529;53.570;9.964;2023-03-31T06:46:41;13.67;;;5.07;;
44816;SDS011;30529;53.570;9.964;2023-03-31T06:49:07;15.50;;;5.27;;
44816;SDS011;30529;53.570;9.964;2023-03-31T06:51:33;8.60;;;4.20;;
44816;SDS011;30529;53.570;9.964;2023-03-31T06:53:59;12.83;;;5.13;;
44816;SDS011;30529;53.570;9.964;2023-03-31T06:56:25;9.73;;;4.80;;
44816;SDS011;30529;53.570;9.964;2023-03-31T06:58:52;14.93;;;5.23;;
44816;SDS011;30529;53.570;9.964;2023-03-31T07:01:18;10.93;;;4.57;;
44816;SDS011;30529;53.570;9.964;2023-03-31T07:03:44;9.87;;;4.77;;
44816;SDS011;30529;53.570;9.964;2023-03-31T07:06:10;12.30;;;4.40;;
44816;SDS011;30529;53.570;9.964;2023-03-31T07:08:36;14.13;;;5.13;;
44816;SDS011;30529;53.570;9.964;2023-03-31T07:11:02;13.10;;;5.03;;
44816;SDS011;30529;53.570;9.964;2023-03-31T07:13:28;12.00;;;5.47;;
44816;SDS011;30529;53.570;9.964;2023-03-31T07:15:54;10.63;;;4.97;;
44816;SDS011;30529;53.570;9.964;2023-03-31T07:18:20;9.83;;;4.13;;
44816;SDS011;30529;53.570;9.964;2023-03-31T07:20:50;13.13;;;5.30;;
44816;SDS011;30529;53.570;9.964;2023-03-31T07:23:17;15.60;;;4.80;;
44816;SDS011;30529;53.570;9.964;2023-03-31T07:25:43;8.77;;;4.60;;
44816;SDS011;30529;53.570;9.964;2023-03-31T07:28:10;11.57;;;4.80;;
44816;SDS011;30529;53.570;9.964;2023-03-31T07:30:36;13.87;;;5.00;;
44816;SDS011;30529;53.570;9.964;2023-03-31T07:33:02;12.00;;;5.03;;
44816;SDS011;30529;53.570;9.964;2023-03-31T07:35:29;6.67;;;3.77;;
44816;SDS011;30529;53.570;9.964;2023-03-31T07:37:55;9.83;;;4.60;;
44816;SDS011;30529;53.570;9.964;2023-03-31T07:40:23;10.57;;;3.50;;
44816;SDS011;30529;53.570;9.964;2023-03-31T07:42:50;9.83;;;3.77;;
44816;SDS011;30529;53.570;9.964;2023-03-31T07:45:18;9.33;;;4.00;;
44816;SDS011;30529;53.570;9.964;2023-03-31T07:47:45;7.77;;;3.97;;
44816;SDS011;30529;53.570;9.964;2023-03-31T07:50:12;13.50;;;4.17;;
44816;SDS011;30529;53.570;9.964;2023-03-31T07:52:39;7.67;;;4.10;;
44816;SDS011;30529;53.570;9.964;2023-03-31T07:55:05;9.80;;;4.07;;
44816;SDS011;30529;53.570;9.964;2023-03-31T07:57:33;8.97;;;3.30;;
44816;SDS011;30529;53.570;9.964;2023-03-31T08:00:00;6.60;;;3.03;;
44816;SDS011;30529;53.570;9.964;2023-03-31T08:02:30;6.63;;;3.40;;
44816;SDS011;30529;53.570;9.964;2023-03-31T08:04:56;9.60;;;3.73;;
44816;SDS011;30529;53.570;9.964;2023-03-31T08:07:22;10.17;;;4.10;;
44816;SDS011;30529;53.570;9.964;2023-03-31T08:09:48;7.80;;;4.00;;
44816;SDS011;30529;53.570;9.964;2023-03-31T08:12:14;9.13;;;4.03;;
44816;SDS011;30529;53.570;9.964;2023-03-31T08:14:40;10.80;;;3.40;;
44816;SDS011;30529;53.570;9.964;2023-03-31T08:17:07;8.30;;;3.10;;
44816;SDS011;30529;53.570;9.964;2023-03-31T08:19:35;8.53;;;3.27;;
44816;SDS011;30529;53.570;9.964;2023-03-31T08:22:01;11.10;;;3.83;;
44816;SDS011;30529;53.570;9.964;2023-03-31T08:24:27;7.97;;;3.53;;
44816;SDS011;30529;53.570;9.964;2023-03-31T08:26:53;7.37;;;3.23;;
44816;SDS011;30529;53.570;9.964;2023-03-31T08:29:20;13.30;;;3.63;;
44816;SDS011;30529;53.570;9.964;2023-03-31T08:31:46;6.50;;;3.23;;
44816;SDS011;30529;53.570;9.964;2023-03-31T08:34:12;10.40;;;3.20;;
44816;SDS011;30529;53.570;9.964;2023-03-31T08:36:38;8.80;;;3.10;;
44816;SDS011;30529;53.570;9.964;2023-03-31T08:39:04;10.53;;;3.50;;
44816;SDS011;30529;53.570;9.964;2023-03-31T08:41:38;9.67;;;3.20;;
44816;SDS011;30529;53.570;9.964;2023-03-31T08:44:14;8.60;;;3.40;;
44816;SDS011;30529;53.570;9.964;2023-03-31T08:46:46;17.47;;;3.43;;
44816;SDS011;30529;53.570;9.964;2023-03-31T08:49:15;8.70;;;3.50;;
44816;SDS011;30529;53.570;9.964;2023-03-31T08:51:46;8.77;;;3.87;;
44816;SDS011;30529;53.570;9.964;2023-03-31T08:57:15;5.47;;;2.93;;
44816;SDS011;30529;53.570;9.964;2023-03-31T08:59:47;8.73;;;3.33;;
44816;SDS011;30529;53.570;9.964;2023-03-31T09:02:29;11.73;;;3.43;;
44816;SDS011;30529;53.570;9.964;2023-03-31T09:05:28;12.07;;;3.53;;
44816;SDS011;30529;53.570;9.964;2023-03-31T09:07:58;9.03;;;2.80;;
44816;SDS011;30529;53.570;9.964;2023-03-31T09:10:44;8.07;;;3.20;;
44816;SDS011;30529;53.570;9.964;2023-03-31T09:13:33;8.33;;;3.30;;
44816;SDS011;30529;53.570;9.964;2023-03-31T09:16:34;12.67;;;3.23;;
44816;SDS011;30529;53.570;9.964;2023-03-31T09:19:16;9.83;;;3.80;;
44816;SDS011;30529;53.570;9.964;2023-03-31T09:21:57;7.73;;;2.90;;
44816;SDS011;30529;53.570;9.964;2023-03-31T09:24:43;8.87;;;3.10;;
44816;SDS011;30529;53.570;9.964;2023-03-31T09:27:13;10.47;;;3.47;;
44816;SDS011;30529;53.570;9.964;2023-03-31T09:29:50;8.70;;;3.50;;
44816;SDS011;30529;53.570;9.964;2023-03-31T09:35:39;7.70;;;3.10;;
44816;SDS011;30529;53.570;9.964;2023-03-31T09:38:05;6.60;;;2.70;;
44816;SDS011;30529;53.570;9.964;2023-03-31T09:40:34;5.83;;;2.97;;
44816;SDS011;30529;53.570;9.964;2023-03-31T09:43:00;8.87;;;2.77;;
44816;SDS011;30529;53.570;9.964;2023-03-31T09:45:30;5.50;;;2.37;;
44816;SDS011;30529;53.570;9.964;2023-03-31T09:48:10;5.97;;;2.70;;
44816;SDS011;30529;53.570;9.964;2023-03-31T09:50:44;10.17;;;2.83;;
44816;SDS011;30529;53.570;9.964;2023-03-31T09:53:28;8.40;;;2.77;;
44816;SDS011;30529;53.570;9.964;2023-03-31T09:56:00;6.80;;;3.07;;
44816;SDS011;30529;53.570;9.964;2023-03-31T09:58:28;8.47;;;3.13;;
44816;SDS011;30529;53.570;9.964;2023-03-31T10:01:04;7.37;;;3.10;;
44816;SDS011;30529;53.570;9.964;2023-03-31T10:03:33;6.97;;;2.57;;
44816;SDS011;30529;53.570;9.964;2023-03-31T10:06:15;6.53;;;2.40;;
44816;SDS011;30529;53.570;9.964;2023-03-31T10:08:51;5.17;;;2.20;;
44816;SDS011;30529;53.570;9.964;2023-03-31T10:11:21;6.97;;;2.73;;
44816;SDS011;30529;53.570;9.964;2023-03-31T10:13:58;8.10;;;2.90;;
44816;SDS011;30529;53.570;9.964;2023-03-31T10:16:43;10.63;;;4.37;;
44816;SDS011;30529;53.570;9.964;2023-03-31T10:21:47;4.90;;;2.43;;
44816;SDS011;30529;53.570;9.964;2023-03-31T10:24:20;8.57;;;2.70;;
44816;SDS011;30529;53.570;9.964;2023-03-31T10:26:47;5.93;;;2.87;;
44816;SDS011;30529;53.570;9.964;2023-03-31T10:29:17;9.40;;;2.90;;
44816;SDS011;30529;53.570;9.964;2023-03-31T10:31:50;6.50;;;2.57;;
44816;SDS011;30529;53.570;9.964;2023-03-31T10:34:16;5.63;;;2.97;;
44816;SDS011;30529;53.570;9.964;2023-03-31T10:36:44;8.57;;;2.77;;
44816;SDS011;30529;53.570;9.964;2023-03-31T10:39:14;10.60;;;2.80;;
44816;SDS011;30529;53.570;9.964;2023-03-31T10:41:41;4.93;;;2.70;;
44816;SDS011;30529;53.570;9.964;2023-03-31T10:44:10;6.40;;;2.40;;
44816;SDS011;30529;53.570;9.964;2023-03-31T10:47:23;7.07;;;2.93;;
44816;SDS011;30529;53.570;9.964;2023-03-31T10:49:49;5.43;;;2.33;;
44816;SDS011;30529;53.570;9.964;2023-03-31T10:52:21;6.20;;;2.60;;
44816;SDS011;30529;53.570;9.964;2023-03-31T10:54:51;7.37;;;2.57;;
44816;SDS011;30529;53.570;9.964;2023-03-31T10:57:28;6.50;;;2.67;;
44816;SDS011;30529;53.570;9.964;2023-03-31T11:03:07;7.83;;;2.40;;
44816;SDS011;30529;53.570;9.964;2023-03-31T11:05:51;6.87;;;2.20;;
44816;SDS011;30529;53.570;9.964;2023-03-31T11:11:57;5.67;;;2.10;;
44816;SDS011;30529;53.570;9.964;2023-03-31T11:17:35;10.37;;;2.90;;
44816;SDS011;30529;53.570;9.964;2023-03-31T11:23:24;5.57;;;2.50;;
44816;SDS011;30529;53.570;9.964;2023-03-31T11:26:13;6.50;;;2.30;;
44816;SDS011;30529;53.570;9.964;2023-03-31T11:29:29;5.63;;;1.73;;
44816;SDS011;30529;53.570;9.964;2023-03-31T11:43:41;6.93;;;2.20;;
44816;SDS011;30529;53.570;9.964;2023-03-31T11:46:16;6.53;;;2.00;;
44816;SDS011;30529;53.570;9.964;2023-03-31T11:49:00;4.87;;;1.87;;
44816;SDS011;30529;53.570;9.964;2023-03-31T11:51:56;5.73;;;1.97;;
44816;SDS011;30529;53.570;9.964;2023-03-31T11:56:57;7.57;;;2.33;;
44816;SDS011;30529;53.570;9.964;2023-03-31T11:59:31;6.33;;;2.10;;
44816;SDS011;30529;53.570;9.964;2023-03-31T12:02:03;4.93;;;1.77;;
44816;SDS011;30529;53.570;9.964;2023-03-31T12:04:48;6.27;;;2.10;;
44816;SDS011;30529;53.570;9.964;2023-03-31T12:07:28;5.57;;;1.90;;
44816;SDS011;30529;53.570;9.964;2023-03-31T12:10:04;7.77;;;2.10;;
44816;SDS011;30529;53.570;9.964;2023-03-31T12:12:46;5.90;;;1.83;;
44816;SDS011;30529;53.570;9.964;2023-03-31T12:15:32;5.60;;;2.27;;
44816;SDS011;30529;53.570;9.964;2023-03-31T12:18:02;6.33;;;1.83;;
44816;SDS011;30529;53.570;9.964;2023-03-31T12:20:41;4.40;;;1.60;;
44816;SDS011;30529;53.570;9.964;2023-03-31T12:23:16;5.67;;;2.20;;
44816;SDS011;30529;53.570;9.964;2023-03-31T12:25:51;6.70;;;1.97;;
44816;SDS011;30529;53.570;9.964;2023-03-31T12:28:18;9.27;;;1.90;;
44816;SDS011;30529;53.570;9.964;2023-03-31T12:30:46;5.93;;;1.63;;
44816;SDS011;30529;53.570;9.964;2023-03-31T12:33:15;6.40;;;2.07;;
44816;SDS011;30529;53.570;9.964;2023-03-31T12:38:49;6.17;;;2.10;;
44816;SDS011;30529;53.570;9.964;2023-03-31T12:41:27;4.73;;;2.07;;
44816;SDS011;30529;53.570;9.964;2023-03-31T12:44:37;4.63;;;1.90;;
44816;SDS011;30529;53.570;9.964;2023-03-31T12:47:14;5.17;;;2.43;;
44816;SDS011;30529;53.570;9.964;2023-03-31T12:50:05;4.07;;;2.50;;
44816;SDS011;30529;53.570;9.964;2023-03-31T12:53:14;4.20;;;2.30;;
44816;SDS011;30529;53.570;9.964;2023-03-31T12:55:55;6.23;;;2.23;;
44816;SDS011;30529;53.570;9.964;2023-03-31T13:06:11;4.90;;;2.23;;
44816;SDS011;30529;53.570;9.964;2023-03-31T13:11:45;5.50;;;2.93;;
44816;SDS011;30529;53.570;9.964;2023-03-31T13:16:50;6.37;;;2.43;;
44816;SDS011;30529;53.570;9.964;2023-03-31T13:19:28;8.53;;;2.50;;
44816;SDS011;30529;53.570;9.964;2023-03-31T13:21:57;7.13;;;3.20;;
44816;SDS011;30529;53.570;9.964;2023-03-31T13:24:29;6.33;;;2.63;;
44816;SDS011;30529;53.570;9.964;2023-03-31T13:26:57;6.17;;;2.47;;
44816;SDS011;30529;53.570;9.964;2023-03-31T13:29:37;3.63;;;2.50;;
44816;SDS011;30529;53.570;9.964;2023-03-31T13:32:16;7.20;;;2.63;;
44816;SDS011;30529;53.570;9.964;2023-03-31T13:35:04;5.83;;;2.20;;
44816;SDS011;30529;53.570;9.964;2023-03-31T13:43:27;5.97;;;2.53;;
44816;SDS011;30529;53.570;9.964;2023-03-31T13:51:41;5.80;;;2.77;;
44816;SDS011;30529;53.570;9.964;2023-03-31T13:54:38;4.73;;;2.67;;
44816;SDS011;30529;53.570;9.964;2023-03-31T13:57:21;5.23;;;2.90;;
44816;SDS011;30529;53.570;9.964;2023-03-31T14:06:11;6.20;;;2.40;;
44816;SDS011;30529;53.570;9.964;2023-03-31T14:09:03;4.90;;;2.70;;
44816;SDS011;30529;53.570;9.964;2023-03-31T14:11:39;5.10;;;2.53;;
44816;SDS011;30529;53.570;9.964;2023-03-31T14:14:12;6.20;;;2.53;;
44816;SDS011;30529;53.570;9.964;2023-03-31T14:16:50;5.93;;;3.17;;
44816;SDS011;30529;53.570;9.964;2023-03-31T14:19:34;4.30;;;2.13;;
44816;SDS011;30529;53.570;9.964;2023-03-31T14:22:19;3.97;;;2.00;;
44816;SDS011;30529;53.570;9.964;2023-03-31T14:30:32;4.57;;;2.10;;
44816;SDS011;30529;53.570;9.964;2023-03-31T14:33:24;4.77;;;2.20;;
44816;SDS011;30529;53.570;9.964;2023-03-31T14:36:35;3.37;;;1.97;;
44816;SDS011;30529;53.570;9.964;2023-03-31T14:39:11;3.47;;;2.03;;
44816;SDS011;30529;53.570;9.964;2023-03-31T14:41:38;5.87;;;3.07;;
44816;SDS011;30529;53.570;9.964;2023-03-31T14:44:06;4.97;;;2.40;;
44816;SDS011;30529;53.570;9.964;2023-03-31T14:46:38;3.53;;;2.00;;
44816;SDS011;30529;53.570;9.964;2023-03-31T14:51:52;2.97;;;2.20;;
44816;SDS011;30529;53.570;9.964;2023-03-31T14:54:19;4.97;;;1.80;;
44816;SDS011;30529;53.570;9.964;2023-03-31T14:56:50;2.63;;;2.10;;
44816;SDS011;30529;53.570;9.964;2023-03-31T14:59:20;3.60;;;2.07;;
44816;SDS011;30529;53.570;9.964;2023-03-31T15:01:50;5.40;;;2.20;;
44816;SDS011;30529;53.570;9.964;2023-03-31T15:04:18;2.73;;;1.63;;
44816;SDS011;30529;53.570;9.964;2023-03-31T15:06:48;4.47;;;1.83;;
44816;SDS011;30529;53.570;9.964;2023-03-31T15:09:20;3.40;;;1.93;;
44816;SDS011;30529;53.570;9.964;2023-03-31T15:12:02;4.77;;;1.90;;
44816;SDS011;30529;53.570;9.964;2023-03-31T15:14:34;4.37;;;2.10;;
44816;SDS011;30529;53.570;9.964;2023-03-31T15:17:04;3.27;;;1.60;;
44816;SDS011;30529;53.570;9.964;2023-03-31T15:19:34;3.83;;;2.03;;
44816;SDS011;30529;53.570;9.964;2023-03-31T15:22:11;3.60;;;1.90;;
44816;SDS011;30529;53.570;9.964;2023-03-31T15:24:43;2.57;;;1.60;;
44816;SDS011;30529;53.570;9.964;2023-03-31T15:27:15;2.90;;;1.70;;
44816;SDS011;30529;53.570;9.964;2023-03-31T15:29:50;3.27;;;1.40;;
44816;SDS011;30529;53.570;9.964;2023-03-31T15:32:23;3.30;;;1.30;;
44816;SDS011;30529;53.570;9.964;2023-03-31T15:34:52;2.23;;;1.53;;
44816;SDS011;30529;53.570;9.964;2023-03-31T15:37:39;2.77;;;1.83;;
44816;SDS011;30529;53.570;9.964;2023-03-31T15:40:14;3.10;;;1.40;;
44816;SDS011;30529;53.570;9.964;2023-03-31T15:42:54;1.97;;;1.43;;
44816;SDS011;30529;53.570;9.964;2023-03-31T15:48:15;3.50;;;1.50;;
44816;SDS011;30529;53.570;9.964;2023-03-31T15:50:43;2.37;;;1.40;;
44816;SDS011;30529;53.570;9.964;2023-03-31T15:53:30;3.57;;;1.40;;
44816;SDS011;30529;53.570;9.964;2023-03-31T15:56:08;2.20;;;1.53;;
44816;SDS011;30529;53.570;9.964;2023-03-31T15:59:21;2.43;;;1.50;;
44816;SDS011;30529;53.570;9.964;2023-03-31T16:01:49;2.50;;;1.47;;
44816;SDS011;30529;53.570;9.964;2023-03-31T16:04:16;4.30;;;1.87;;
44816;SDS011;30529;53.570;9.964;2023-03-31T16:06:43;4.63;;;1.70;;
44816;SDS011;30529;53.570;9.964;2023-03-31T16:09:17;4.90;;;1.73;;
44816;SDS011;30529;53.570;9.964;2023-03-31T16:12:01;2.70;;;1.90;;
44816;SDS011;30529;53.570;9.964;2023-03-31T16:14:36;4.00;;;2.17;;
44816;SDS011;30529;53.570;9.964;2023-03-31T16:17:11;3.30;;;2.10;;
44816;SDS011;30529;53.570;9.964;2023-03-31T16:19:46;3.57;;;1.63;;
44816;SDS011;30529;53.570;9.964;2023-03-31T16:22:21;3.00;;;1.70;;
44816;SDS011;30529;53.570;9.964;2023-03-31T16:24:52;3.00;;;1.70;;
44816;SDS011;30529;53.570;9.964;2023-03-31T16:27:18;1.77;;;1.30;;
44816;SDS011;30529;53.570;9.964;2023-03-31T16:29:44;2.83;;;1.70;;
44816;SDS011;30529;53.570;9.964;2023-03-31T16:32:15;3.63;;;1.73;;
44816;SDS011;30529;53.570;9.964;2023-03-31T16:34:56;2.67;;;1.70;;
44816;SDS011;30529;53.570;9.964;2023-03-31T16:37:23;3.93;;;1.60;;
44816;SDS011;30529;53.570;9.964;2023-03-31T16:39:50;2.97;;;1.90;;
44816;SDS011;30529;53.570;9.964;2023-03-31T16:42:17;3.57;;;2.00;;
44816;SDS011;30529;53.570;9.964;2023-03-31T16:44:44;2.57;;;1.63;;
44816;SDS011;30529;53.570;9.964;2023-03-31T16:47:11;3.77;;;2.00;;
44816;SDS011;30529;53.570;9.964;2023-03-31T16:49:37;3.80;;;1.70;;
44816;SDS011;30529;53.570;9.964;2023-03-31T16:52:04;4.20;;;2.10;;
44816;SDS011;30529;53.570;9.964;2023-03-31T16:54:30;6.00;;;2.20;;
44816;SDS011;30529;53.570;9.964;2023-03-31T16:56:57;2.70;;;2.10;;
44816;SDS011;30529;53.570;9.964;2023-03-31T16:59:23;2.77;;;1.83;;